sensor_id;sensor_type;location;lat;lon;timestamp;P1;durP1;ratioP1;P2;durP2;ratioP2
20597;SDS011;10457;48.770;11.446;2023-01-16T00:02:37;0.77;;;0.70;;
20597;SDS011;10457;48.770;11.446;2023-01-16T00:07:59;2.80;;;0.97;;
20597;SDS011;10457;48.770;11.446;2023-01-16T00:13:21;1.63;;;1.00;;
20597;SDS011;10457;48.770;11.446;2023-01-16T00:18:43;1.80;;;1.00;;
20597;SDS011;10457;48.770;11.446;2023-01-16T00:24:05;1.90;;;1.70;;
20597;SDS011;10457;48.770;11.446;2023-01-16T00:29:27;3.77;;;1.17;;
20597;SDS011;10457;48.770;11.446;2023-01-16T00:34:50;6.63;;;1.60;;
20597;SDS011;10457;48.770;11.446;2023-01-16T00:40:11;4.53;;;1.20;;
20597;SDS011;10457;48.770;11.446;2023-01-16T00:45:33;2.20;;;0.90;;
20597;SDS011;10457;48.770;11.446;2023-01-16T00:50:56;3.87;;;1.40;;
20597;SDS011;10457;48.770;11.446;2023-01-16T00:56:17;1.40;;;1.07;;
20597;SDS011;10457;48.770;11.446;2023-01-16T01:01:39;1.30;;;1.00;;
20597;SDS011;10457;48.770;11.446;2023-01-16T01:07:02;1.53;;;0.83;;
20597;SDS011;10457;48.770;11.446;2023-01-16T01:12:23;1.97;;;1.10;;
20597;SDS011;10457;48.770;11.446;2023-01-16T01:17:45;2.73;;;1.37;;
20597;SDS011;10457;48.770;11.446;2023-01-16T01:23:08;1.77;;;0.93;;
20597;SDS011;10457;48.770;11.446;2023-01-16T01:28:29;2.73;;;0.93;;
20597;SDS011;10457;48.770;11.446;2023-01-16T01:33:50;4.37;;;1.30;;
20597;SDS011;10457;48.770;11.446;2023-01-16T01:39:13;1.47;;;1.00;;
20597;SDS011;10457;48.770;11.446;2023-01-16T01:44:45;7.40;;;1.20;;
20597;SDS011;10457;48.770;11.446;2023-01-16T01:50:13;2.40;;;0.93;;
20597;SDS011;10457;48.770;11.446;2023-01-16T01:55:42;2.07;;;0.93;;
20597;SDS011;10457;48.770;11.446;2023-01-16T02:01:07;2.17;;;1.00;;
20597;SDS011;10457;48.770;11.446;2023-01-16T02:06:30;1.20;;;0.60;;
20597;SDS011;10457;48.770;11.446;2023-01-16T02:11:58;0.97;;;0.87;;
20597;SDS011;10457;48.770;11.446;2023-01-16T02:17:24;1.77;;;1.03;;
20597;SDS011;10457;48.770;11.446;2023-01-16T02:35:32;4.33;;;1.70;;
20597;SDS011;10457;48.770;11.446;2023-01-16T02:41:12;6.20;;;2.57;;
20597;SDS011;10457;48.770;11.446;2023-01-16T02:46:42;2.37;;;1.10;;
20597;SDS011;10457;48.770;11.446;2023-01-16T02:52:13;0.93;;;0.80;;
20597;SDS011;10457;48.770;11.446;2023-01-16T02:57:43;1.67;;;1.17;;
20597;SDS011;10457;48.770;11.446;2023-01-16T03:03:16;3.63;;;1.03;;
20597;SDS011;10457;48.770;11.446;2023-01-16T03:08:59;4.43;;;1.10;;
20597;SDS011;10457;48.770;11.446;2023-01-16T03:14:41;1.90;;;1.03;;
20597;SDS011;10457;48.770;11.446;2023-01-16T03:20:16;3.43;;;1.03;;
20597;SDS011;10457;48.770;11.446;2023-01-16T03:25:54;2.37;;;0.90;;
20597;SDS011;10457;48.770;11.446;2023-01-16T03:31:23;1.03;;;0.87;;
20597;SDS011;10457;48.770;11.446;2023-01-16T03:36:53;1.47;;;1.20;;
20597;SDS011;10457;48.770;11.446;2023-01-16T03:42:22;2.23;;;1.00;;
20597;SDS011;10457;48.770;11.446;2023-01-16T03:47:49;3.40;;;1.40;;
20597;SDS011;10457;48.770;11.446;2023-01-16T03:53:28;2.53;;;1.63;;
20597;SDS011;10457;48.770;11.446;2023-01-16T03:58:55;2.87;;;1.20;;
20597;SDS011;10457;48.770;11.446;2023-01-16T04:04:18;2.53;;;1.33;;
20597;SDS011;10457;48.770;11.446;2023-01-16T04:09:46;2.07;;;1.27;;
20597;SDS011;10457;48.770;11.446;2023-01-16T04:15:13;2.73;;;0.80;;
20597;SDS011;10457;48.770;11.446;2023-01-16T04:20:36;3.03;;;1.30;;
20597;SDS011;10457;48.770;11.446;2023-01-16T04:26:00;2.80;;;1.00;;
20597;SDS011;10457;48.770;11.446;2023-01-16T04:31:24;3.43;;;1.10;;
20597;SDS011;10457;48.770;11.446;2023-01-16T04:36:47;7.33;;;1.40;;
20597;SDS011;10457;48.770;11.446;2023-01-16T04:42:08;1.90;;;1.10;;
20597;SDS011;10457;48.770;11.446;2023-01-16T04:47:32;3.80;;;1.47;;
20597;SDS011;10457;48.770;11.446;2023-01-16T04:52:53;3.53;;;1.10;;
20597;SDS011;10457;48.770;11.446;2023-01-16T04:58:15;3.20;;;1.57;;
20597;SDS011;10457;48.770;11.446;2023-01-16T05:03:38;1.47;;;1.33;;
20597;SDS011;10457;48.770;11.446;2023-01-16T05:08:59;3.43;;;1.23;;
20597;SDS011;10457;48.770;11.446;2023-01-16T05:14:21;2.37;;;1.47;;
20597;SDS011;10457;48.770;11.446;2023-01-16T05:19:43;3.10;;;1.20;;
20597;SDS011;10457;48.770;11.446;2023-01-16T05:25:05;2.27;;;1.50;;
20597;SDS011;10457;48.770;11.446;2023-01-16T05:30:27;2.67;;;1.00;;
20597;SDS011;10457;48.770;11.446;2023-01-16T05:35:50;3.57;;;1.37;;
20597;SDS011;10457;48.770;11.446;2023-01-16T05:41:13;0.97;;;0.87;;
20597;SDS011;10457;48.770;11.446;2023-01-16T05:46:34;4.40;;;1.10;;
20597;SDS011;10457;48.770;11.446;2023-01-16T05:51:57;1.23;;;0.90;;
20597;SDS011;10457;48.770;11.446;2023-01-16T05:57:19;1.33;;;0.73;;
20597;SDS011;10457;48.770;11.446;2023-01-16T06:02:40;2.07;;;1.17;;
20597;SDS011;10457;48.770;11.446;2023-01-16T06:08:03;6.07;;;1.70;;
20597;SDS011;10457;48.770;11.446;2023-01-16T06:13:25;10.43;;;1.47;;
20597;SDS011;10457;48.770;11.446;2023-01-16T06:18:47;8.67;;;3.07;;
20597;SDS011;10457;48.770;11.446;2023-01-16T06:24:10;3.57;;;1.97;;
20597;SDS011;10457;48.770;11.446;2023-01-16T06:29:32;0.93;;;0.93;;
20597;SDS011;10457;48.770;11.446;2023-01-16T06:34:53;2.30;;;1.20;;
20597;SDS011;10457;48.770;11.446;2023-01-16T06:40:16;2.10;;;1.17;;
20597;SDS011;10457;48.770;11.446;2023-01-16T06:45:39;3.43;;;1.23;;
20597;SDS011;10457;48.770;11.446;2023-01-16T06:51:01;4.90;;;1.73;;
20597;SDS011;10457;48.770;11.446;2023-01-16T06:56:24;9.10;;;3.97;;
20597;SDS011;10457;48.770;11.446;2023-01-16T07:01:46;2.97;;;1.77;;
20597;SDS011;10457;48.770;11.446;2023-01-16T07:07:07;4.07;;;2.13;;
20597;SDS011;10457;48.770;11.446;2023-01-16T07:12:30;2.67;;;1.83;;
20597;SDS011;10457;48.770;11.446;2023-01-16T07:17:52;4.17;;;1.67;;
20597;SDS011;10457;48.770;11.446;2023-01-16T07:23:32;3.93;;;2.20;;
20597;SDS011;10457;48.770;11.446;2023-01-16T07:28:56;1.90;;;1.43;;
20597;SDS011;10457;48.770;11.446;2023-01-16T07:34:19;3.20;;;2.90;;
20597;SDS011;10457;48.770;11.446;2023-01-16T07:39:41;5.73;;;1.63;;
20597;SDS011;10457;48.770;11.446;2023-01-16T07:45:05;4.87;;;2.43;;
20597;SDS011;10457;48.770;11.446;2023-01-16T07:50:28;17.33;;;8.57;;
20597;SDS011;10457;48.770;11.446;2023-01-16T07:55:49;4.47;;;2.70;;
20597;SDS011;10457;48.770;11.446;2023-01-16T08:01:14;8.37;;;3.07;;
20597;SDS011;10457;48.770;11.446;2023-01-16T08:06:35;4.10;;;1.90;;
20597;SDS011;10457;48.770;11.446;2023-01-16T08:12:02;2.53;;;1.50;;
20597;SDS011;10457;48.770;11.446;2023-01-16T08:17:25;3.53;;;2.40;;
20597;SDS011;10457;48.770;11.446;2023-01-16T08:22:47;1.17;;;0.93;;
20597;SDS011;10457;48.770;11.446;2023-01-16T08:28:11;1.67;;;1.03;;
20597;SDS011;10457;48.770;11.446;2023-01-16T08:33:34;1.93;;;1.13;;
20597;SDS011;10457;48.770;11.446;2023-01-16T08:38:56;3.00;;;1.10;;
20597;SDS011;10457;48.770;11.446;2023-01-16T08:44:18;0.80;;;0.80;;
20597;SDS011;10457;48.770;11.446;2023-01-16T08:49:58;0.97;;;0.60;;
20597;SDS011;10457;48.770;11.446;2023-01-16T08:55:38;1.50;;;1.13;;
20597;SDS011;10457;48.770;11.446;2023-01-16T09:00:59;3.37;;;1.10;;
20597;SDS011;10457;48.770;11.446;2023-01-16T09:06:22;0.80;;;0.70;;
20597;SDS011;10457;48.770;11.446;2023-01-16T09:11:44;1.63;;;0.77;;
20597;SDS011;10457;48.770;11.446;2023-01-16T09:17:23;1.53;;;1.20;;
20597;SDS011;10457;48.770;11.446;2023-01-16T09:22:48;1.50;;;0.83;;
20597;SDS011;10457;48.770;11.446;2023-01-16T09:28:17;1.07;;;0.90;;
20597;SDS011;10457;48.770;11.446;2023-01-16T09:33:38;0.90;;;0.90;;
20597;SDS011;10457;48.770;11.446;2023-01-16T09:39:02;1.47;;;1.07;;
20597;SDS011;10457;48.770;11.446;2023-01-16T09:44:23;0.60;;;0.60;;
20597;SDS011;10457;48.770;11.446;2023-01-16T09:49:46;1.47;;;0.73;;
20597;SDS011;10457;48.770;11.446;2023-01-16T09:55:15;0.90;;;0.73;;
20597;SDS011;10457;48.770;11.446;2023-01-16T10:00:59;1.57;;;0.80;;
20597;SDS011;10457;48.770;11.446;2023-01-16T10:06:22;1.60;;;0.70;;
20597;SDS011;10457;48.770;11.446;2023-01-16T10:11:53;0.90;;;0.80;;
20597;SDS011;10457;48.770;11.446;2023-01-16T10:17:20;1.10;;;0.77;;
20597;SDS011;10457;48.770;11.446;2023-01-16T10:22:57;2.20;;;0.90;;
20597;SDS011;10457;48.770;11.446;2023-01-16T10:28:38;0.70;;;0.60;;
20597;SDS011;10457;48.770;11.446;2023-01-16T10:34:14;1.50;;;0.90;;
20597;SDS011;10457;48.770;11.446;2023-01-16T10:39:40;1.73;;;1.10;;
20597;SDS011;10457;48.770;11.446;2023-01-16T10:45:11;2.30;;;0.83;;
20597;SDS011;10457;48.770;11.446;2023-01-16T10:51:01;4.23;;;0.77;;
20597;SDS011;10457;48.770;11.446;2023-01-16T10:56:24;2.03;;;1.10;;
20597;SDS011;10457;48.770;11.446;2023-01-16T11:01:47;0.80;;;0.80;;
20597;SDS011;10457;48.770;11.446;2023-01-16T11:07:14;2.40;;;0.80;;
20597;SDS011;10457;48.770;11.446;2023-01-16T11:12:42;0.87;;;0.87;;
20597;SDS011;10457;48.770;11.446;2023-01-16T11:18:23;1.37;;;0.90;;
20597;SDS011;10457;48.770;11.446;2023-01-16T11:23:52;1.80;;;0.60;;
20597;SDS011;10457;48.770;11.446;2023-01-16T11:29:19;0.60;;;0.60;;
20597;SDS011;10457;48.770;11.446;2023-01-16T11:34:45;1.57;;;1.00;;
20597;SDS011;10457;48.770;11.446;2023-01-16T11:40:13;1.37;;;0.90;;
20597;SDS011;10457;48.770;11.446;2023-01-16T11:45:43;1.97;;;1.00;;
20597;SDS011;10457;48.770;11.446;2023-01-16T11:51:29;3.07;;;0.90;;
20597;SDS011;10457;48.770;11.446;2023-01-16T11:56:59;1.53;;;0.70;;
20597;SDS011;10457;48.770;11.446;2023-01-16T12:02:55;0.93;;;0.87;;
20597;SDS011;10457;48.770;11.446;2023-01-16T12:08:52;0.87;;;0.73;;
20597;SDS011;10457;48.770;11.446;2023-01-16T12:14:29;0.83;;;0.60;;
20597;SDS011;10457;48.770;11.446;2023-01-16T12:20:01;1.97;;;0.93;;
20597;SDS011;10457;48.770;11.446;2023-01-16T12:25:32;1.57;;;0.80;;
20597;SDS011;10457;48.770;11.446;2023-01-16T12:31:16;2.23;;;0.73;;
20597;SDS011;10457;48.770;11.446;2023-01-16T12:37:02;0.83;;;0.73;;
20597;SDS011;10457;48.770;11.446;2023-01-16T12:42:40;1.80;;;0.67;;
20597;SDS011;10457;48.770;11.446;2023-01-16T12:48:39;3.17;;;0.63;;
20597;SDS011;10457;48.770;11.446;2023-01-16T12:54:20;0.60;;;0.50;;
20597;SDS011;10457;48.770;11.446;2023-01-16T12:59:59;1.70;;;0.83;;
20597;SDS011;10457;48.770;11.446;2023-01-16T13:05:24;0.53;;;0.47;;
20597;SDS011;10457;48.770;11.446;2023-01-16T13:10:49;1.97;;;1.07;;
20597;SDS011;10457;48.770;11.446;2023-01-16T13:16:34;3.30;;;0.97;;
20597;SDS011;10457;48.770;11.446;2023-01-16T13:22:02;3.10;;;0.70;;
20597;SDS011;10457;48.770;11.446;2023-01-16T13:27:31;6.00;;;5.40;;
20597;SDS011;10457;48.770;11.446;2023-01-16T13:33:03;1.13;;;0.93;;
20597;SDS011;10457;48.770;11.446;2023-01-16T13:38:36;4.80;;;3.40;;
20597;SDS011;10457;48.770;11.446;2023-01-16T13:44:13;3.10;;;2.83;;
20597;SDS011;10457;48.770;11.446;2023-01-16T13:49:54;3.90;;;3.30;;
20597;SDS011;10457;48.770;11.446;2023-01-16T13:55:32;2.67;;;1.60;;
20597;SDS011;10457;48.770;11.446;2023-01-16T14:00:59;3.00;;;1.33;;
20597;SDS011;10457;48.770;11.446;2023-01-16T14:06:26;3.20;;;1.33;;
20597;SDS011;10457;48.770;11.446;2023-01-16T14:11:57;9.80;;;7.77;;
20597;SDS011;10457;48.770;11.446;2023-01-16T14:17:21;1.80;;;1.30;;
20597;SDS011;10457;48.770;11.446;2023-01-16T14:22:48;1.33;;;1.23;;
20597;SDS011;10457;48.770;11.446;2023-01-16T14:28:29;5.20;;;4.63;;
20597;SDS011;10457;48.770;11.446;2023-01-16T14:33:52;12.10;;;11.10;;
20597;SDS011;10457;48.770;11.446;2023-01-16T14:39:28;2.20;;;2.00;;
20597;SDS011;10457;48.770;11.446;2023-01-16T14:51:10;4.33;;;1.87;;
20597;SDS011;10457;48.770;11.446;2023-01-16T14:56:59;3.37;;;2.13;;
20597;SDS011;10457;48.770;11.446;2023-01-16T15:02:27;3.37;;;2.00;;
20597;SDS011;10457;48.770;11.446;2023-01-16T15:07:56;3.70;;;3.10;;
20597;SDS011;10457;48.770;11.446;2023-01-16T15:13:21;4.80;;;2.60;;
20597;SDS011;10457;48.770;11.446;2023-01-16T15:18:45;8.03;;;2.70;;
20597;SDS011;10457;48.770;11.446;2023-01-16T15:24:24;3.40;;;3.10;;
20597;SDS011;10457;48.770;11.446;2023-01-16T15:29:50;5.37;;;2.67;;
20597;SDS011;10457;48.770;11.446;2023-01-16T15:35:20;4.50;;;3.47;;
20597;SDS011;10457;48.770;11.446;2023-01-16T15:40:46;5.07;;;3.47;;
20597;SDS011;10457;48.770;11.446;2023-01-16T15:46:13;4.83;;;3.73;;
20597;SDS011;10457;48.770;11.446;2023-01-16T15:51:53;6.03;;;3.87;;
20597;SDS011;10457;48.770;11.446;2023-01-16T15:57:15;4.27;;;3.50;;
20597;SDS011;10457;48.770;11.446;2023-01-16T16:02:42;7.83;;;5.27;;
20597;SDS011;10457;48.770;11.446;2023-01-16T16:08:04;8.23;;;5.57;;
20597;SDS011;10457;48.770;11.446;2023-01-16T16:13:26;12.47;;;7.83;;
20597;SDS011;10457;48.770;11.446;2023-01-16T16:18:56;10.23;;;6.37;;
20597;SDS011;10457;48.770;11.446;2023-01-16T16:24:19;11.60;;;6.93;;
20597;SDS011;10457;48.770;11.446;2023-01-16T16:29:41;9.47;;;6.30;;
20597;SDS011;10457;48.770;11.446;2023-01-16T16:35:17;11.07;;;5.73;;
20597;SDS011;10457;48.770;11.446;2023-01-16T16:47:22;10.13;;;6.07;;
20597;SDS011;10457;48.770;11.446;2023-01-16T16:52:48;11.07;;;5.30;;
20597;SDS011;10457;48.770;11.446;2023-01-16T16:58:12;11.83;;;6.10;;
20597;SDS011;10457;48.770;11.446;2023-01-16T17:03:36;9.33;;;4.93;;
20597;SDS011;10457;48.770;11.446;2023-01-16T17:08:58;9.00;;;5.27;;
20597;SDS011;10457;48.770;11.446;2023-01-16T17:14:20;12.73;;;7.37;;
20597;SDS011;10457;48.770;11.446;2023-01-16T17:19:41;16.33;;;8.33;;
20597;SDS011;10457;48.770;11.446;2023-01-16T17:25:07;11.47;;;7.27;;
20597;SDS011;10457;48.770;11.446;2023-01-16T17:30:32;8.47;;;5.50;;
20597;SDS011;10457;48.770;11.446;2023-01-16T17:35:54;9.07;;;5.90;;
20597;SDS011;10457;48.770;11.446;2023-01-16T17:41:30;12.77;;;5.77;;
20597;SDS011;10457;48.770;11.446;2023-01-16T17:47:12;8.57;;;5.97;;
20597;SDS011;10457;48.770;11.446;2023-01-16T17:52:34;11.37;;;6.03;;
20597;SDS011;10457;48.770;11.446;2023-01-16T17:57:58;7.07;;;5.47;;
20597;SDS011;10457;48.770;11.446;2023-01-16T18:03:20;9.63;;;5.90;;
20597;SDS011;10457;48.770;11.446;2023-01-16T18:08:41;11.20;;;7.47;;
20597;SDS011;10457;48.770;11.446;2023-01-16T18:14:04;7.37;;;5.33;;
20597;SDS011;10457;48.770;11.446;2023-01-16T18:19:44;10.23;;;6.47;;
20597;SDS011;10457;48.770;11.446;2023-01-16T18:25:06;7.37;;;4.77;;
20597;SDS011;10457;48.770;11.446;2023-01-16T18:30:29;10.30;;;5.73;;
20597;SDS011;10457;48.770;11.446;2023-01-16T18:35:51;5.20;;;4.33;;
20597;SDS011;10457;48.770;11.446;2023-01-16T18:41:21;12.70;;;7.73;;
20597;SDS011;10457;48.770;11.446;2023-01-16T18:47:02;13.43;;;7.90;;
20597;SDS011;10457;48.770;11.446;2023-01-16T18:52:40;13.73;;;7.93;;
20597;SDS011;10457;48.770;11.446;2023-01-16T18:58:19;1.57;;;1.43;;
20597;SDS011;10457;48.770;11.446;2023-01-16T19:04:00;3.73;;;2.30;;
20597;SDS011;10457;48.770;11.446;2023-01-16T19:09:21;2.77;;;0.90;;
20597;SDS011;10457;48.770;11.446;2023-01-16T19:14:43;1.30;;;1.03;;
20597;SDS011;10457;48.770;11.446;2023-01-16T19:20:08;1.00;;;0.80;;
20597;SDS011;10457;48.770;11.446;2023-01-16T19:25:31;0.83;;;0.63;;
20597;SDS011;10457;48.770;11.446;2023-01-16T19:30:54;1.00;;;0.50;;
20597;SDS011;10457;48.770;11.446;2023-01-16T19:36:17;1.23;;;0.80;;
20597;SDS011;10457;48.770;11.446;2023-01-16T19:41:38;1.00;;;0.80;;
20597;SDS011;10457;48.770;11.446;2023-01-16T19:47:18;0.87;;;0.70;;
20597;SDS011;10457;48.770;11.446;2023-01-16T19:52:42;9.63;;;4.63;;
20597;SDS011;10457;48.770;11.446;2023-01-16T19:58:03;14.40;;;5.90;;
20597;SDS011;10457;48.770;11.446;2023-01-16T20:03:25;6.13;;;3.30;;
20597;SDS011;10457;48.770;11.446;2023-01-16T20:08:48;3.33;;;1.13;;
20597;SDS011;10457;48.770;11.446;2023-01-16T20:14:09;4.97;;;3.33;;
20597;SDS011;10457;48.770;11.446;2023-01-16T20:19:31;1.23;;;1.10;;
20597;SDS011;10457;48.770;11.446;2023-01-16T20:24:54;1.77;;;0.37;;
20597;SDS011;10457;48.770;11.446;2023-01-16T20:30:15;1.10;;;0.87;;
20597;SDS011;10457;48.770;11.446;2023-01-16T20:35:58;0.87;;;0.63;;
20597;SDS011;10457;48.770;11.446;2023-01-16T20:41:25;1.13;;;0.90;;
20597;SDS011;10457;48.770;11.446;2023-01-16T20:47:05;0.90;;;0.70;;
20597;SDS011;10457;48.770;11.446;2023-01-16T20:52:28;0.93;;;0.93;;
20597;SDS011;10457;48.770;11.446;2023-01-16T20:57:51;1.43;;;1.00;;
20597;SDS011;10457;48.770;11.446;2023-01-16T21:03:12;2.07;;;0.60;;
20597;SDS011;10457;48.770;11.446;2023-01-16T21:08:34;0.47;;;0.43;;
20597;SDS011;10457;48.770;11.446;2023-01-16T21:13:57;4.23;;;2.30;;
20597;SDS011;10457;48.770;11.446;2023-01-16T21:19:30;1.40;;;0.70;;
20597;SDS011;10457;48.770;11.446;2023-01-16T21:25:09;0.60;;;0.60;;
20597;SDS011;10457;48.770;11.446;2023-01-16T21:30:33;1.00;;;0.83;;
20597;SDS011;10457;48.770;11.446;2023-01-16T21:35:55;1.43;;;0.40;;
20597;SDS011;10457;48.770;11.446;2023-01-16T21:41:16;0.90;;;0.67;;
20597;SDS011;10457;48.770;11.446;2023-01-16T21:46:39;3.70;;;0.77;;
20597;SDS011;10457;48.770;11.446;2023-01-16T21:52:01;1.53;;;1.00;;
20597;SDS011;10457;48.770;11.446;2023-01-16T21:57:22;6.07;;;0.90;;
20597;SDS011;10457;48.770;11.446;2023-01-16T22:02:45;3.37;;;1.10;;
20597;SDS011;10457;48.770;11.446;2023-01-16T22:08:07;0.37;;;0.30;;
20597;SDS011;10457;48.770;11.446;2023-01-16T22:13:29;0.77;;;0.53;;
20597;SDS011;10457;48.770;11.446;2023-01-16T22:19:09;3.17;;;0.50;;
20597;SDS011;10457;48.770;11.446;2023-01-16T22:24:42;0.73;;;0.33;;
20597;SDS011;10457;48.770;11.446;2023-01-16T22:30:09;2.10;;;0.90;;
20597;SDS011;10457;48.770;11.446;2023-01-16T22:35:33;1.40;;;0.83;;
20597;SDS011;10457;48.770;11.446;2023-01-16T22:40:58;2.53;;;1.03;;
20597;SDS011;10457;48.770;11.446;2023-01-16T22:46:20;5.20;;;1.00;;
20597;SDS011;10457;48.770;11.446;2023-01-16T22:51:43;3.07;;;0.90;;
20597;SDS011;10457;48.770;11.446;2023-01-16T22:57:06;0.90;;;0.90;;
20597;SDS011;10457;48.770;11.446;2023-01-16T23:02:27;1.13;;;0.97;;
20597;SDS011;10457;48.770;11.446;2023-01-16T23:07:52;3.30;;;1.00;;
20597;SDS011;10457;48.770;11.446;2023-01-16T23:13:15;1.20;;;1.00;;
20597;SDS011;10457;48.770;11.446;2023-01-16T23:18:37;2.03;;;0.40;;
20597;SDS011;10457;48.770;11.446;2023-01-16T23:24:00;0.47;;;0.43;;
20597;SDS011;10457;48.770;11.446;2023-01-16T23:29:25;2.20;;;0.57;;
20597;SDS011;10457;48.770;11.446;2023-01-16T23:34:46;2.40;;;0.57;;
20597;SDS011;10457;48.770;11.446;2023-01-16T23:40:10;0.67;;;0.67;;
20597;SDS011;10457;48.770;11.446;2023-01-16T23:45:32;0.50;;;0.50;;
20597;SDS011;10457;48.770;11.446;2023-01-16T23:50:54;0.57;;;0.47;;
20597;SDS011;10457;48.770;11.446;2023-01-16T23:56:17;2.87;;;0.60;;
